Time,TemperatureF,DewpointF,PressureIn,WindDirection,WindDirectionDegrees,WindSpeedMPH,WindSpeedGustMPH,Humidity,HourlyPrecipIn,Conditions,Clouds,dailyrainin,SoftwareType,DateUTC
2013-07-18 07:45:00,71.1,69.3,29.94,SW,219,0.0,1.0,94,0.00,,,0.01,Wunderground v.1.15,2013-07-18 11:45:00,
2013-07-18 07:50:00,71.8,69.3,29.94,SW,221,1.0,1.0,92,0.00,,,0.01,Wunderground v.1.15,2013-07-18 11:50:00,
2013-07-18 07:55:00,72.1,68.7,29.94,SW,217,1.0,1.0,89,0.00,,,0.01,Wunderground v.1.15,2013-07-18 11:55:00,
2013-07-18 08:00:00,72.3,68.9,29.95,South,173,0.0,1.0,89,0.00,,,0.01,Wunderground v.1.15,2013-07-18 12:00:00,
2013-07-18 08:05:00,72.7,68.6,29.95,SSE,162,0.0,1.0,87,0.00,,,0.01,Wunderground v.1.15,2013-07-18 12:05:00,
2013-07-18 08:15:00,73.7,68.9,29.95,SSW,197,1.0,3.0,85,0.00,,,0.01,Wunderground v.1.15,2013-07-18 12:15:00,
2013-07-18 08:20:00,74.4,69.6,29.95,SSE,165,1.0,2.0,85,0.00,,,0.01,Wunderground v.1.15,2013-07-18 12:20:00,
2013-07-18 08:30:00,75.6,69.0,29.95,South,169,1.0,1.0,80,0.00,,,0.01,Wunderground v.1.15,2013-07-18 12:30:00,
2013-07-18 08:35:00,76.2,69.6,29.95,SSE,166,1.0,1.0,80,0.00,,,0.01,Wunderground v.1.15,2013-07-18 12:35:00,
2013-07-18 08:40:00,76.5,69.9,29.95,SSW,194,1.0,1.0,80,0.00,,,0.01,Wunderground v.1.15,2013-07-18 12:40:00,
2013-07-18 08:50:00,77.0,68.5,29.95,SE,146,1.0,1.0,75,0.00,,,0.01,Wunderground v.1.15,2013-07-18 12:50:00,
2013-07-18 08:55:00,77.2,69.8,29.95,South,169,1.0,1.0,78,0.00,,,0.01,Wunderground v.1.15,2013-07-18 12:55:00,
2013-07-18 09:05:00,77.7,69.5,29.94,SE,134,1.0,2.0,76,0.00,,,0.01,Wunderground v.1.15,2013-07-18 13:05:00,
2013-07-18 09:10:00,78.1,69.1,29.95,SSE,162,1.0,1.0,74,0.00,,,0.01,Wunderground v.1.15,2013-07-18 13:10:00,
2013-07-18 09:20:00,78.6,68.8,29.94,SSW,209,1.0,2.0,72,0.00,,,0.01,Wunderground v.1.15,2013-07-18 13:20:00,
2013-07-18 09:25:00,79.1,69.7,29.95,SE,134,1.0,2.0,73,0.00,,,0.01,Wunderground v.1.15,2013-07-18 13:25:00,
2013-07-18 09:35:00,79.8,69.1,29.94,SE,141,1.0,1.0,70,0.00,,,0.01,Wunderground v.1.15,2013-07-18 13:35:00,
2013-07-18 09:40:00,80.1,69.4,29.94,South,191,1.0,1.0,70,0.00,,,0.01,Wunderground v.1.15,2013-07-18 13:40:00,
2013-07-18 09:50:00,80.7,69.2,29.94,SSW,196,1.0,1.0,68,0.00,,,0.01,Wunderground v.1.15,2013-07-18 13:50:00,
2013-07-18 09:55:00,81.1,71.2,29.94,SSE,158,1.0,3.0,72,0.00,,,0.01,Wunderground v.1.15,2013-07-18 13:55:00,
2013-07-18 10:00:00,81.0,69.0,29.94,SSW,198,1.0,1.0,67,0.00,,,0.01,Wunderground v.1.15,2013-07-18 14:00:00,
2013-07-18 10:10:00,81.6,69.1,29.94,WSW,245,1.0,1.0,66,0.00,,,0.01,Wunderground v.1.15,2013-07-18 14:10:00,
2013-07-18 10:15:00,81.7,69.2,29.94,SSE,155,2.0,3.0,66,0.00,,,0.01,Wunderground v.1.15,2013-07-18 14:15:00,
2013-07-18 10:20:00,81.8,70.2,29.94,SSE,160,2.0,2.0,68,0.00,,,0.01,Wunderground v.1.15,2013-07-18 14:20:00,
2013-07-18 10:30:00,82.7,69.3,29.94,SSE,162,1.0,3.0,64,0.00,,,0.01,Wunderground v.1.15,2013-07-18 14:30:00,
2013-07-18 10:35:00,82.7,68.8,29.93,SSE,160,2.0,3.0,63,0.00,,,0.01,Wunderground v.1.15,2013-07-18 14:35:00,
2013-07-18 10:45:00,82.8,67.5,29.93,ESE,121,2.0,2.0,60,0.00,,,0.01,Wunderground v.1.15,2013-07-18 14:45:00,
2013-07-18 10:50:00,83.3,68.9,29.93,SSE,162,2.0,2.0,62,0.00,,,0.01,Wunderground v.1.15,2013-07-18 14:50:00,
2013-07-18 11:00:00,84.1,68.2,29.93,South,191,1.0,1.0,59,0.00,,,0.01,Wunderground v.1.15,2013-07-18 15:00:00,
2013-07-18 11:05:00,84.4,69.0,29.93,South,172,2.0,2.0,60,0.00,,,0.01,Wunderground v.1.15,2013-07-18 15:05:00,
2013-07-18 11:10:00,84.5,68.6,29.93,SSW,195,2.0,2.0,59,0.00,,,0.01,Wunderground v.1.15,2013-07-18 15:10:00,
2013-07-18 11:20:00,84.7,68.3,29.92,South,181,2.0,2.0,58,0.00,,,0.01,Wunderground v.1.15,2013-07-18 15:20:00,
2013-07-18 11:25:00,84.9,69.0,29.92,SSE,153,2.0,2.0,59,0.00,,,0.01,Wunderground v.1.15,2013-07-18 15:25:00,
2013-07-18 11:30:00,85.2,69.3,29.92,SSE,155,2.0,2.0,59,0.00,,,0.01,Wunderground v.1.15,2013-07-18 15:30:00,
2013-07-18 11:40:00,84.8,69.9,29.93,SE,141,2.0,2.0,61,0.00,,,0.01,Wunderground v.1.15,2013-07-18 15:40:00,
2013-07-18 11:45:00,84.2,69.3,29.93,SSE,160,2.0,2.0,61,0.00,,,0.01,Wunderground v.1.15,2013-07-18 15:45:00,
2013-07-18 11:55:00,84.3,70.3,29.92,South,191,1.0,3.0,63,0.00,,,0.01,Wunderground v.1.15,2013-07-18 15:55:00,
2013-07-18 12:00:00,85.0,71.5,29.92,South,181,1.0,1.0,64,0.00,,,0.01,Wunderground v.1.15,2013-07-18 16:00:00,
2013-07-18 12:10:00,84.9,71.4,29.92,SSW,202,1.0,1.0,64,0.00,,,0.01,Wunderground v.1.15,2013-07-18 16:10:00,
2013-07-18 12:15:00,85.2,71.2,29.92,SSW,193,1.0,1.0,63,0.00,,,0.01,Wunderground v.1.15,2013-07-18 16:15:00,
2013-07-18 12:20:00,85.5,70.5,29.92,SSE,155,1.0,1.0,61,0.00,,,0.01,Wunderground v.1.15,2013-07-18 16:20:00,
2013-07-18 12:30:00,85.9,71.4,29.91,SSW,202,1.0,1.0,62,0.00,,,0.01,Wunderground v.1.15,2013-07-18 16:30:00,
2013-07-18 12:35:00,86.2,72.1,29.91,SSE,158,1.0,2.0,63,0.00,,,0.01,Wunderground v.1.15,2013-07-18 16:35:00,
2013-07-18 12:45:00,86.3,71.3,29.91,South,191,2.0,2.0,61,0.00,,,0.01,Wunderground v.1.15,2013-07-18 16:45:00,
2013-07-18 12:55:00,85.3,71.3,29.91,SSE,158,2.0,2.0,63,0.00,,,0.01,Wunderground v.1.15,2013-07-18 16:55:00,
2013-07-18 13:00:00,85.1,70.6,29.91,South,169,1.0,1.0,62,0.00,,,0.01,Wunderground v.1.15,2013-07-18 17:00:00,
2013-07-18 13:05:00,85.0,71.5,29.91,SSE,159,1.0,1.0,64,0.00,,,0.01,Wunderground v.1.15,2013-07-18 17:05:00,
2013-07-18 13:15:00,84.7,70.7,29.91,SSE,167,1.0,1.0,63,0.00,,,0.01,Wunderground v.1.15,2013-07-18 17:15:00,
2013-07-18 13:20:00,84.8,71.3,29.91,South,169,0.0,0.0,64,0.00,,,0.01,Wunderground v.1.15,2013-07-18 17:20:00,
2013-07-18 13:30:00,85.7,71.2,29.91,SSW,212,0.0,0.0,62,0.00,,,0.01,Wunderground v.1.15,2013-07-18 17:30:00,
2013-07-18 13:35:00,86.0,70.5,29.91,SW,214,1.0,1.0,60,0.00,,,0.01,Wunderground v.1.15,2013-07-18 17:35:00,
2013-07-18 13:40:00,85.8,69.3,29.90,SW,214,1.0,1.0,58,0.00,,,0.01,Wunderground v.1.15,2013-07-18 17:40:00,
2013-07-18 13:50:00,85.4,69.9,29.91,South,169,0.0,0.0,60,0.00,,,0.01,Wunderground v.1.15,2013-07-18 17:50:00,
2013-07-18 13:55:00,86.1,71.6,29.91,SE,143,0.0,1.0,62,0.00,,,0.01,Wunderground v.1.15,2013-07-18 17:55:00,
2013-07-18 14:05:00,87.6,72.5,29.90,SSE,158,1.0,2.0,61,0.00,,,0.01,Wunderground v.1.15,2013-07-18 18:05:00,
2013-07-18 14:10:00,87.8,69.6,29.90,SSE,153,1.0,1.0,55,0.00,,,0.01,Wunderground v.1.15,2013-07-18 18:10:00,
2013-07-18 14:15:00,87.7,69.5,29.90,SE,138,1.0,1.0,55,0.00,,,0.01,Wunderground v.1.15,2013-07-18 18:15:00,
2013-07-18 14:25:00,88.4,69.6,29.90,SSE,153,1.0,2.0,54,0.00,,,0.01,Wunderground v.1.15,2013-07-18 18:25:00,
2013-07-18 14:30:00,87.9,70.8,29.89,SSE,156,2.0,2.0,57,0.00,,,0.01,Wunderground v.1.15,2013-07-18 18:30:00,
2013-07-18 14:40:00,87.9,69.2,29.89,SSE,152,1.0,1.0,54,0.00,,,0.01,Wunderground v.1.15,2013-07-18 18:40:00,
2013-07-18 14:45:00,87.8,70.7,29.89,SE,136,1.0,1.0,57,0.00,,,0.01,Wunderground v.1.15,2013-07-18 18:45:00,
2013-07-18 14:55:00,87.0,67.8,29.89,ENE,63,1.0,3.0,53,0.00,,,0.01,Wunderground v.1.15,2013-07-18 18:55:00,
2013-07-18 15:00:00,86.5,68.9,29.89,NNE,32,1.0,1.0,56,0.00,,,0.01,Wunderground v.1.15,2013-07-18 19:00:00,
2013-07-18 15:10:00,86.5,70.5,29.88,SE,139,0.0,1.0,59,0.00,,,0.01,Wunderground v.1.15,2013-07-18 19:10:00,
2013-07-18 15:15:00,85.9,72.3,29.88,NNW,344,1.0,1.0,64,0.00,,,0.01,Wunderground v.1.15,2013-07-18 19:15:00,
2013-07-18 15:20:00,85.6,69.6,29.88,SSE,166,1.0,1.0,59,0.00,,,0.01,Wunderground v.1.15,2013-07-18 19:20:00,
2013-07-18 15:30:00,84.3,72.1,29.88,NNE,20,0.0,0.0,67,0.00,,,0.01,Wunderground v.1.15,2013-07-18 19:30:00,
2013-07-18 15:35:00,83.3,69.8,29.88,North,4,0.0,0.0,64,0.00,,,0.01,Wunderground v.1.15,2013-07-18 19:35:00,
2013-07-18 15:45:00,83.1,71.9,29.88,NNE,20,1.0,1.0,69,0.00,,,0.01,Wunderground v.1.15,2013-07-18 19:45:00,
2013-07-18 15:50:00,83.8,69.9,29.88,NNW,328,1.0,1.0,63,0.00,,,0.01,Wunderground v.1.15,2013-07-18 19:50:00,
2013-07-18 15:55:00,84.6,70.1,29.87,SSE,163,0.0,2.0,62,0.00,,,0.01,Wunderground v.1.15,2013-07-18 19:55:00,
2013-07-18 16:05:00,86.1,73.9,29.87,WNW,294,0.0,0.0,67,0.00,,,0.01,Wunderground v.1.15,2013-07-18 20:05:00,
2013-07-18 16:10:00,86.7,71.6,29.87,WNW,301,0.0,0.0,61,0.00,,,0.01,Wunderground v.1.15,2013-07-18 20:10:00,
2013-07-18 16:15:00,86.4,70.4,29.87,West,259,1.0,1.0,59,0.00,,,0.01,Wunderground v.1.15,2013-07-18 20:15:00,
2013-07-18 16:25:00,86.5,70.5,29.87,North,1,1.0,1.0,59,0.00,,,0.01,Wunderground v.1.15,2013-07-18 20:25:00,
2013-07-18 16:30:00,86.7,74.0,29.87,NNW,340,1.0,1.0,66,0.00,,,0.01,Wunderground v.1.15,2013-07-18 20:30:00,
2013-07-18 16:40:00,85.9,72.8,29.87,SSW,194,1.0,2.0,65,0.00,,,0.01,Wunderground v.1.15,2013-07-18 20:40:00,
2013-07-18 16:45:00,85.8,71.3,29.86,North,8,0.0,2.0,62,0.00,,,0.01,Wunderground v.1.15,2013-07-18 20:45:00,
2013-07-18 16:50:00,85.4,71.4,29.86,NNW,328,1.0,1.0,63,0.00,,,0.01,Wunderground v.1.15,2013-07-18 20:50:00,
2013-07-18 17:00:00,85.7,70.2,29.85,SE,133,0.0,0.0,60,0.00,,,0.01,Wunderground v.1.15,2013-07-18 21:00:00,
2013-07-18 17:05:00,84.9,73.2,29.85,NNW,333,0.0,0.0,68,0.00,,,0.01,Wunderground v.1.15,2013-07-18 21:05:00,
2013-07-18 17:15:00,84.9,72.3,29.86,ENE,67,0.0,1.0,66,0.00,,,0.01,Wunderground v.1.15,2013-07-18 21:15:00,
2013-07-18 17:20:00,84.8,71.3,29.86,East,101,1.0,1.0,64,0.00,,,0.01,Wunderground v.1.15,2013-07-18 21:20:00,
2013-07-18 17:30:00,84.9,69.9,29.87,NNE,15,1.0,1.0,61,0.00,,,0.01,Wunderground v.1.15,2013-07-18 21:30:00,
2013-07-18 17:35:00,84.6,71.5,29.86,North,6,0.0,2.0,65,0.00,,,0.01,Wunderground v.1.15,2013-07-18 21:35:00,
2013-07-18 17:40:00,83.9,73.1,29.86,North,356,1.0,1.0,70,0.00,,,0.01,Wunderground v.1.15,2013-07-18 21:40:00,
2013-07-18 17:50:00,82.2,72.3,29.86,SSW,203,0.0,0.0,72,0.00,,,0.01,Wunderground v.1.15,2013-07-18 21:50:00,
2013-07-18 17:55:00,81.2,72.1,29.86,SSW,203,0.0,0.0,74,0.00,,,0.01,Wunderground v.1.15,2013-07-18 21:55:00,
2013-07-18 18:05:00,80.3,73.2,29.86,NNW,328,0.0,0.0,79,0.00,,,0.01,Wunderground v.1.15,2013-07-18 22:05:00,
2013-07-18 18:10:00,80.2,73.8,29.86,North,355,0.0,0.0,81,0.00,,,0.01,Wunderground v.1.15,2013-07-18 22:10:00,
2013-07-18 18:15:00,79.6,74.0,29.86,North,355,0.0,0.0,83,0.00,,,0.01,Wunderground v.1.15,2013-07-18 22:15:00,
2013-07-18 18:25:00,78.8,74.3,29.85,NNE,19,0.0,1.0,86,0.00,,,0.01,Wunderground v.1.15,2013-07-18 22:25:00,
2013-07-18 18:30:00,78.6,74.4,29.86,NNE,19,0.0,0.0,87,0.00,,,0.01,Wunderground v.1.15,2013-07-18 22:30:00,
2013-07-18 18:40:00,78.9,75.0,29.85,NNE,16,0.0,0.0,88,0.00,,,0.01,Wunderground v.1.15,2013-07-18 22:40:00,
2013-07-18 18:45:00,79.0,74.1,29.85,NE,49,0.0,0.0,85,0.00,,,0.01,Wunderground v.1.15,2013-07-18 22:45:00,
2013-07-18 18:50:00,78.6,74.4,29.86,North,10,0.0,2.0,87,0.00,,,0.01,Wunderground v.1.15,2013-07-18 22:50:00,
2013-07-18 18:55:00,78.3,73.4,29.85,NNE,21,0.0,2.0,85,0.00,,,0.01,Wunderground v.1.15,2013-07-18 22:55:00,
2013-07-18 19:05:00,78.1,73.9,29.86,NNE,16,0.0,0.0,87,0.00,,,0.01,Wunderground v.1.15,2013-07-18 23:05:00,
2013-07-18 19:10:00,77.8,73.6,29.86,NNE,20,0.0,0.0,87,0.00,,,0.01,Wunderground v.1.15,2013-07-18 23:10:00,
2013-07-18 19:20:00,77.5,73.3,29.87,NNE,26,0.0,1.0,87,0.00,,,0.01,Wunderground v.1.15,2013-07-18 23:20:00,
2013-07-18 19:25:00,77.4,73.6,29.87,NNE,26,0.0,1.0,88,0.00,,,0.01,Wunderground v.1.15,2013-07-18 23:25:00,
2013-07-18 19:30:00,77.1,73.3,29.88,NNE,18,0.0,0.0,88,0.00,,,0.01,Wunderground v.1.15,2013-07-18 23:30:00,
2013-07-18 19:40:00,76.7,72.9,29.88,NE,44,0.0,0.0,88,0.00,,,0.01,Wunderground v.1.15,2013-07-18 23:40:00,
2013-07-18 19:45:00,76.6,73.1,29.88,NE,43,0.0,0.0,89,0.00,,,0.01,Wunderground v.1.15,2013-07-18 23:45:00,
2013-07-18 19:55:00,76.0,72.9,29.87,NE,43,0.0,0.0,90,0.00,,,0.01,Wunderground v.1.15,2013-07-18 23:55:00,
2013-07-18 20:00:00,75.6,72.8,29.87,NE,43,0.0,0.0,91,0.00,,,0.01,Wunderground v.1.15,2013-07-19 00:00:00,
2013-07-18 20:05:00,75.2,72.7,29.87,NE,43,0.0,0.0,92,0.00,,,0.01,Wunderground v.1.15,2013-07-19 00:05:00,
2013-07-18 20:15:00,74.6,72.4,29.87,NE,43,0.0,0.0,93,0.00,,,0.01,Wunderground v.1.15,2013-07-19 00:15:00,
2013-07-18 20:20:00,74.4,72.6,29.88,NE,43,0.0,0.0,94,0.00,,,0.01,Wunderground v.1.15,2013-07-19 00:20:00,
2013-07-18 20:30:00,74.3,72.5,29.88,NE,43,0.0,0.0,94,0.00,,,0.01,Wunderground v.1.15,2013-07-19 00:30:00,
2013-07-18 20:35:00,74.2,72.4,29.89,NE,43,0.0,0.0,94,0.00,,,0.01,Wunderground v.1.15,2013-07-19 00:35:00,
2013-07-18 20:40:00,74.1,72.6,29.89,NE,43,0.0,0.0,95,0.00,,,0.02,Wunderground v.1.15,2013-07-19 00:40:00,
2013-07-18 20:50:00,74.0,72.5,29.89,NE,43,0.0,0.0,95,0.00,,,0.02,Wunderground v.1.15,2013-07-19 00:50:00,
2013-07-18 20:55:00,73.9,72.4,29.89,NE,43,0.0,0.0,95,0.00,,,0.02,Wunderground v.1.15,2013-07-19 00:55:00,
2013-07-18 21:05:00,73.6,72.1,29.90,NNE,27,0.0,0.0,95,0.00,,,0.02,Wunderground v.1.15,2013-07-19 01:05:00,
2013-07-18 21:10:00,73.5,72.0,29.90,NNE,27,0.0,0.0,95,0.00,,,0.02,Wunderground v.1.15,2013-07-19 01:10:00,
2013-07-18 21:20:00,73.4,71.9,29.90,NNE,27,0.0,0.0,95,0.00,,,0.03,Wunderground v.1.15,2013-07-19 01:20:00,
2013-07-18 21:25:00,73.3,71.8,29.89,NNE,27,0.0,0.0,95,0.00,,,0.03,Wunderground v.1.15,2013-07-19 01:25:00,
2013-07-18 21:30:00,73.2,71.7,29.90,NNE,27,0.0,0.0,95,0.00,,,0.03,Wunderground v.1.15,2013-07-19 01:30:00,
2013-07-18 21:40:00,73.0,71.5,29.90,NNE,15,0.0,0.0,95,0.00,,,0.03,Wunderground v.1.15,2013-07-19 01:40:00,
2013-07-18 21:45:00,73.0,71.8,29.90,NNE,15,0.0,0.0,96,0.00,,,0.03,Wunderground v.1.15,2013-07-19 01:45:00,
2013-07-18 21:50:00,72.9,71.7,29.90,NNE,15,0.0,0.0,96,0.00,,,0.03,Wunderground v.1.15,2013-07-19 01:50:00,
2013-07-18 22:00:00,72.8,71.3,29.90,NE,34,0.0,0.0,95,0.00,,,0.03,Wunderground v.1.15,2013-07-19 02:00:00,
2013-07-18 22:05:00,72.6,71.1,29.89,NE,34,0.0,0.0,95,0.00,,,0.03,Wunderground v.1.15,2013-07-19 02:05:00,
2013-07-18 22:10:00,72.6,71.4,29.89,NE,34,0.0,0.0,96,0.00,,,0.03,Wunderground v.1.15,2013-07-19 02:10:00,